Au Sable, MI

5:56 PM EDT on October 23, 2014 (GMT -0400)
3 Miles N. of Oscoda, along Lk. Huron | Change Station
CLOSE
Current Station
Personal Weather Station
Location: Oscoda, MI
Elevation: 610 ft
Nearby Weather Stations

Elev 610 ft 44.47 °N, 83.32 °W | Updated 1 minute ago

Clear
Clear
45.1 °F
Feels Like 45 °F
N
0.0
Wind Variable Wind from North
Gusts 0.0 mph

Today
High -- | Low -- °F
--% Chance of Precip.
Yesterday
High -- | Low -- °F
Precip. -- in
7:58 AM 6:36 PM
Waning Crescent, 0% visible
Pressure 30.12 in
Visibility 10.0 miles
Clouds Clear
Windchill 45 °F
Dew Point 23 °F
Humidity 41%
Rainfall -999.00 in
Snow Depth Not available.
UV 0 out of 12
Pollen .30 out of 12
Ozone Good
PM2.5 Good
Flu Activity Sporadic
METAR KOSC 232134Z AUTO 21005KT 10SM CLR 08/02 A3012 RMK AO2 T00860027

More Conditions Fewer Conditions

Pressure 30.12 in
Visibility 10.0 miles
Clouds Clear
Windchill 45 °F
Dew Point 23 °F
Humidity 41%
Rainfall -999.00 in
Snow Depth Not available.
UV 0 out of 12
Pollen .30 out of 12
Ozone Good
PM2.5 Good
Flu Activity Sporadic
METAR KOSC 232134Z AUTO 21005KT 10SM CLR 08/02 A3012 RMK AO2 T00860027

More Conditions Fewer Conditions

Nowcast | as of 5:00 PM EDT on October 23, 2014

At 6 PM...mostly clear. Temperature 47. Light winds. At 8 PM...partly cloudy. Temperature 42. Light winds. At 10 PM...partly cloudy. Temperature 38. Light winds. At 12 am...partly cloudy. Temperature 37. Light winds.

×

10-Day Weather Forecast

Almanac

Astronomy

Oct. 23, 2014 Rise Set
Actual Time 7:58 AM EDT 6:36 PM EDT
Civil Twilight 7:29 AM EDT 7:05 PM EDT
Nautical Twilight 6:55 AM EDT 7:39 PM EDT
Astronomical Twilight 6:21 AM EDT 8:13 PM EDT
Moon 7:36 AM EDT 6:37 PM EDT
Length of Visible Light 11h 36m
Length of Day
10h 37m
Tomorrow will be 2m 52s shorter.
Waning Crescent, 0% of the Moon is Illuminated
Today
Waning Crescent
Oct 30
First Quarter
Nov 6
Full
Nov 14
Last Quarter
Nov 22
New

Today's Extremes

State Highs State Lows

Community

WunderPhotos

Upload Photos

1,764,381 photos uploaded!

WunderBlogs® & News

Nearby

Air Quality

  Air Quality AQ Index Pollutant
Yesterday Good
OZONE
Yesterday Good
PM2.5
Current Good
PM2.5
Current Good
OZONE
Thursday Good
PM2.5
Friday Good
PM2.5
Saturday Good
PM2.5
Sunday Good
PM2.5
Monday Good
PM2.5

Snow Depth

Station Depth Elevation
No new snow has been reported.

Earthquake Activity

City Distance Mag. Time & Date
No recent earthquake activity has been reported nearby.
Minimum magnitude displayed is 2.5.

Coastal Water Temperatures

Place Temperature
Alpena, MI 55.9 °F

Nearby Weather Stations